createdAt,value
2023-01-19T00:01:07.254Z,99375.66
2023-01-19T00:03:36.885Z,99370.59
2023-01-19T00:06:06.218Z,99374.06
2023-01-19T00:08:34.564Z,99376.69
2023-01-19T00:11:02.524Z,99366.00
2023-01-19T00:13:32.009Z,99370.28
2023-01-19T00:15:59.771Z,99362.22
2023-01-19T00:18:27.357Z,99356.81
2023-01-19T00:20:55.244Z,99364.50
2023-01-19T00:23:22.829Z,99357.09
2023-01-19T00:25:51.203Z,99352.50
2023-01-19T00:28:19.934Z,99351.34
2023-01-19T00:30:51.283Z,99356.59
2023-01-19T00:33:19.282Z,99354.63
2023-01-19T00:35:52.277Z,99357.06
2023-01-19T00:38:19.911Z,99353.47
2023-01-19T00:40:47.530Z,99348.03
2023-01-19T00:43:14.141Z,99345.25
2023-01-19T00:45:41.981Z,99351.47
2023-01-19T00:48:10.981Z,99354.75
2023-01-19T00:50:38.953Z,99356.38
2023-01-19T00:53:06.662Z,99359.81
2023-01-19T00:55:34.338Z,99366.09
2023-01-19T00:58:02.816Z,99364.09
2023-01-19T01:00:30.703Z,99369.84
2023-01-19T01:02:58.955Z,99371.00
2023-01-19T01:05:28.299Z,99371.63
2023-01-19T01:07:55.924Z,99377.53
2023-01-19T01:10:26.242Z,99383.59
2023-01-19T01:12:57.577Z,99374.56
2023-01-19T01:15:42.312Z,99366.69
2023-01-19T01:18:10.326Z,99367.50
2023-01-19T01:20:39.266Z,99362.88
2023-01-19T01:23:06.916Z,99372.13
2023-01-19T01:25:37.639Z,99363.91
2023-01-19T01:28:06.919Z,99365.50
2023-01-19T01:30:35.100Z,99358.47
2023-01-19T01:33:03.209Z,99360.44
2023-01-19T01:35:33.554Z,99363.56
2023-01-19T01:38:02.499Z,99347.59
2023-01-19T01:40:30.366Z,99361.56
2023-01-19T01:42:58.510Z,99365.50
2023-01-19T01:45:31.981Z,99366.13
2023-01-19T01:48:05.392Z,99362.53
2023-01-19T01:50:36.546Z,99362.97
2023-01-19T01:53:12.064Z,99363.63
2023-01-19T01:55:46.385Z,99370.16
2023-01-19T01:58:16.189Z,99356.69
2023-01-19T02:01:01.451Z,99367.03
2023-01-19T02:03:29.676Z,99374.38
2023-01-19T02:06:01.021Z,99363.53
2023-01-19T02:08:53.848Z,99357.13
2023-01-19T02:11:38.947Z,99359.75
2023-01-19T02:14:07.610Z,99348.72
2023-01-19T02:16:37.512Z,99352.31
2023-01-19T02:19:06.486Z,99357.22
2023-01-19T02:21:39.982Z,99352.97
2023-01-19T02:24:09.412Z,99344.09
2023-01-19T02:26:41.081Z,99354.59
2023-01-19T02:29:11.143Z,99358.88
2023-01-19T02:31:40.699Z,99352.78
2023-01-19T02:34:10.480Z,99345.53
2023-01-19T02:36:42.127Z,99340.28
2023-01-19T02:39:12.943Z,99335.03
2023-01-19T02:41:44.401Z,99340.94
2023-01-19T02:44:13.788Z,99340.94
2023-01-19T02:46:41.946Z,99341.78
2023-01-19T02:49:09.569Z,99336.31
2023-01-19T02:51:37.420Z,99348.28
2023-01-19T02:54:25.239Z,99336.44
2023-01-19T02:57:06.599Z,99351.41
2023-01-19T02:59:47.423Z,99353.53
2023-01-19T03:02:32.820Z,99351.69
2023-01-19T03:05:21.838Z,99349.41
2023-01-19T03:07:58.599Z,99339.72
2023-01-19T03:10:39.209Z,99342.34
2023-01-19T03:13:15.945Z,99347.78
2023-01-19T03:15:49.451Z,99339.91
2023-01-19T03:18:21.421Z,99328.72
2023-01-19T03:20:53.492Z,99331.53
2023-01-19T03:23:23.623Z,99336.16
2023-01-19T03:25:55.392Z,99337.97
2023-01-19T03:28:25.141Z,99341.78
2023-01-19T03:30:59.798Z,99344.56
2023-01-19T03:33:30.518Z,99325.34
2023-01-19T03:36:03.532Z,99327.69
2023-01-19T03:38:36.516Z,99316.34
2023-01-19T03:41:10.535Z,99313.09
2023-01-19T03:43:40.993Z,99314.88
2023-01-19T03:46:10.884Z,99315.09
2023-01-19T03:48:39.677Z,99315.88
2023-01-19T03:51:09.423Z,99318.06
2023-01-19T03:53:37.241Z,99327.41
2023-01-19T03:56:07.572Z,99322.78
2023-01-19T03:58:35.342Z,99318.81
2023-01-19T04:01:04.152Z,99323.88
2023-01-19T04:03:31.759Z,99318.28
2023-01-19T04:05:59.331Z,99311.38
2023-01-19T04:08:27.021Z,99326.00
2023-01-19T04:10:54.747Z,99323.03
2023-01-19T04:13:23.725Z,99322.81
2023-01-19T04:15:51.311Z,99332.38
2023-01-19T04:18:18.891Z,99335.97
2023-01-19T04:20:46.524Z,99324.63
2023-01-19T04:23:14.183Z,99310.16
2023-01-19T04:25:41.841Z,99305.53
2023-01-19T04:28:09.406Z,99301.63
2023-01-19T04:30:38.490Z,99294.53
2023-01-19T04:33:06.119Z,99289.94
2023-01-19T04:35:34.272Z,99289.75
2023-01-19T04:38:01.926Z,99291.41
2023-01-19T04:40:29.534Z,99297.13
2023-01-19T04:42:57.162Z,99288.22
2023-01-19T04:45:24.821Z,99281.63
2023-01-19T04:47:54.028Z,99289.03
2023-01-19T04:50:21.630Z,99300.22
2023-01-19T04:52:49.913Z,99284.69
2023-01-19T04:55:18.436Z,99285.09
2023-01-19T04:57:46.061Z,99296.69
2023-01-19T05:00:14.488Z,99296.56
2023-01-19T05:02:44.058Z,99307.78
2023-01-19T05:05:13.495Z,99286.00
2023-01-19T05:07:41.428Z,99307.38
2023-01-19T05:10:10.535Z,99307.56
2023-01-19T05:12:38.250Z,99321.22
2023-01-19T05:15:09.602Z,99318.13
2023-01-19T05:17:37.325Z,99325.69
2023-01-19T05:20:05.832Z,99342.47
2023-01-19T05:22:34.806Z,99342.13
2023-01-19T05:25:02.538Z,99339.22
2023-01-19T05:27:30.454Z,99331.19
2023-01-19T05:29:58.090Z,99356.16
2023-01-19T05:32:25.724Z,99335.00
2023-01-19T05:34:53.291Z,99357.00
2023-01-19T05:37:20.951Z,99357.50
2023-01-19T05:39:49.918Z,99362.91
2023-01-19T05:42:17.828Z,99357.84
2023-01-19T05:44:45.567Z,99364.72
2023-01-19T05:47:13.293Z,99369.97
2023-01-19T05:49:40.911Z,99371.44
2023-01-19T05:52:08.495Z,99371.44
2023-01-19T05:54:36.073Z,99371.28
2023-01-19T05:57:04.977Z,99378.63
2023-01-19T05:59:32.577Z,99374.69
2023-01-19T06:02:01.063Z,99378.63
2023-01-19T06:04:28.678Z,99385.16
2023-01-19T06:06:56.295Z,99390.06
2023-01-19T06:09:23.862Z,99397.94
2023-01-19T06:11:54.072Z,99396.59
2023-01-19T06:14:23.062Z,99382.97
2023-01-19T06:16:50.612Z,99391.16
2023-01-19T06:19:18.192Z,99401.16
2023-01-19T06:21:49.729Z,99404.22
2023-01-19T06:24:17.452Z,99419.50
2023-01-19T06:26:45.081Z,99407.00
2023-01-19T06:29:13.730Z,99431.13
2023-01-19T06:31:42.963Z,99431.44
2023-01-19T06:34:10.899Z,99444.56
2023-01-19T06:36:38.827Z,99441.94
2023-01-19T06:39:06.488Z,99448.84
2023-01-19T06:41:34.840Z,99457.22
2023-01-19T06:44:03.210Z,99457.03
2023-01-19T06:46:30.954Z,99457.22
2023-01-19T06:48:59.982Z,99464.28
2023-01-19T06:51:27.928Z,99464.56
2023-01-19T06:53:55.510Z,99467.03
2023-01-19T06:56:23.061Z,99475.56
2023-01-19T06:58:51.840Z,99479.66
2023-01-19T07:01:19.999Z,99481.94
2023-01-19T07:03:47.598Z,99478.16
2023-01-19T07:06:16.539Z,99486.84
2023-01-19T07:08:44.232Z,99488.31
2023-01-19T07:11:25.037Z,99495.84
2023-01-19T07:13:58.237Z,99494.69
2023-01-19T07:16:26.115Z,99507.50
2023-01-19T07:18:53.900Z,99506.38
2023-01-19T07:21:23.184Z,99511.09
2023-01-19T07:23:52.383Z,99517.81
2023-01-19T07:26:21.562Z,99528.81
2023-01-19T07:28:49.611Z,99532.91
2023-01-19T07:31:18.226Z,99539.47
2023-01-19T07:33:46.071Z,99535.66
2023-01-19T07:36:14.202Z,99545.03
2023-01-19T07:38:43.195Z,99538.59
2023-01-19T07:41:11.514Z,99550.41
2023-01-19T07:43:39.090Z,99555.34
2023-01-19T07:46:08.180Z,99555.97
2023-01-19T07:48:36.073Z,99555.81
2023-01-19T07:51:10.385Z,99566.00
2023-01-19T07:53:41.748Z,99564.19
2023-01-19T07:56:11.329Z,99571.56
2023-01-19T07:58:39.066Z,99571.19
2023-01-19T08:01:08.319Z,99566.56
2023-01-19T08:03:36.046Z,99568.22
2023-01-19T08:06:05.237Z,99578.75
2023-01-19T08:08:34.433Z,99587.13
2023-01-19T08:11:03.261Z,99588.09
2023-01-19T08:13:32.191Z,99591.22
2023-01-19T08:16:00.344Z,99593.50
2023-01-19T08:18:27.947Z,99593.31
2023-01-19T08:20:55.596Z,99600.06
2023-01-19T08:23:23.525Z,99605.16
2023-01-19T08:25:51.127Z,99600.16
2023-01-19T08:28:19.233Z,99585.88
2023-01-19T08:30:54.178Z,99617.91
2023-01-19T08:33:23.170Z,99618.22
2023-01-19T08:35:52.942Z,99607.50
2023-01-19T08:38:21.266Z,99613.59
2023-01-19T08:40:49.796Z,99615.06
2023-01-19T08:43:18.264Z,99620.16
2023-01-19T08:45:52.627Z,99625.25
2023-01-19T08:48:23.506Z,99622.59
2023-01-19T08:50:52.268Z,99632.63
2023-01-19T08:53:20.975Z,99631.97
2023-01-19T08:55:48.620Z,99640.34
2023-01-19T08:58:17.385Z,99635.56
2023-01-19T09:00:44.972Z,99630.44
2023-01-19T09:03:14.657Z,99633.91
2023-01-19T09:05:42.321Z,99634.72
2023-01-19T09:08:11.920Z,99631.13
2023-01-19T09:10:40.489Z,99641.94
2023-01-19T09:13:10.892Z,99648.84
2023-01-19T09:15:39.077Z,99659.03
2023-01-19T09:18:10.148Z,99656.06
2023-01-19T09:20:39.223Z,99659.50
2023-01-19T09:23:07.078Z,99670.69
2023-01-19T09:25:34.934Z,99672.63
2023-01-19T09:28:03.102Z,99685.22
2023-01-19T09:30:32.509Z,99693.66
2023-01-19T09:33:04.581Z,99701.06
2023-01-19T09:35:32.627Z,99712.09
2023-01-19T09:38:02.217Z,99703.75
2023-01-19T09:40:30.387Z,99714.78
2023-01-19T09:43:04.600Z,99715.09
2023-01-19T09:45:37.067Z,99713.81
2023-01-19T09:48:14.188Z,99718.09
2023-01-19T09:50:46.639Z,99731.84
2023-01-19T09:53:33.875Z,99720.66
2023-01-19T09:56:01.407Z,99733.69
2023-01-19T09:58:29.781Z,99740.31
2023-01-19T10:01:06.532Z,99743.22
2023-01-19T10:03:38.944Z,99746.69
2023-01-19T10:06:12.883Z,99755.97
2023-01-19T10:08:48.009Z,99757.59
2023-01-19T10:11:42.076Z,99757.88
2023-01-19T10:14:20.841Z,99762.88
2023-01-19T10:16:57.956Z,99752.88
2023-01-19T10:19:30.604Z,99754.97
2023-01-19T10:22:01.419Z,99762.97
2023-01-19T10:24:38.335Z,99765.06
2023-01-19T10:27:23.440Z,99765.16
2023-01-19T10:29:51.226Z,99767.91
2023-01-19T10:32:26.640Z,99764.53
2023-01-19T10:34:55.681Z,99781.38
2023-01-19T10:37:30.893Z,99773.91
2023-01-19T10:40:08.762Z,99786.28
2023-01-19T10:42:37.778Z,99785.09
2023-01-19T10:45:16.155Z,99786.56
2023-01-19T10:47:45.221Z,99784.47
2023-01-19T10:50:34.895Z,99790.69
2023-01-19T10:53:05.795Z,99777.38
2023-01-19T10:55:37.959Z,99790.75
2023-01-19T10:58:07.136Z,99799.41
2023-01-19T11:00:37.788Z,99791.22
2023-01-19T11:03:06.794Z,99794.13
2023-01-19T11:05:35.209Z,99803.06
2023-01-19T11:08:23.263Z,99805.88
2023-01-19T11:10:58.773Z,99801.50
2023-01-19T11:13:26.504Z,99806.78
2023-01-19T11:15:57.503Z,99801.59
2023-01-19T11:18:29.801Z,99805.25
2023-01-19T11:20:58.987Z,99802.03
2023-01-19T11:23:29.869Z,99811.72
2023-01-19T11:26:02.019Z,99822.63
2023-01-19T11:28:32.736Z,99803.16
2023-01-19T11:31:02.348Z,99824.00
2023-01-19T11:33:35.735Z,99826.94
2023-01-19T11:36:06.043Z,99825.44
2023-01-19T11:38:33.755Z,99829.84
2023-01-19T11:41:06.552Z,99826.38
2023-01-19T11:43:48.328Z,99832.13
2023-01-19T11:46:17.800Z,99832.56
2023-01-19T11:48:50.048Z,99840.19
2023-01-19T11:51:22.315Z,99842.84
2023-01-19T11:53:53.134Z,99839.19
2023-01-19T11:56:28.188Z,99840.75
2023-01-19T11:58:56.693Z,99845.66
2023-01-19T12:01:26.139Z,99851.44
2023-01-19T12:04:00.997Z,99847.91
2023-01-19T12:06:33.782Z,99841.78
2023-01-19T12:09:06.920Z,99848.06
2023-01-19T12:11:38.349Z,99851.25
2023-01-19T12:14:10.187Z,99852.88
2023-01-19T12:16:39.854Z,99849.88
2023-01-19T12:19:15.856Z,99857.56
2023-01-19T12:21:43.949Z,99851.44
2023-01-19T12:24:17.186Z,99853.09
2023-01-19T12:26:52.817Z,99842.41
2023-01-19T12:29:22.840Z,99856.50
2023-01-19T12:32:17.996Z,99862.53
2023-01-19T12:34:47.328Z,99852.88
2023-01-19T12:37:35.093Z,99857.09
2023-01-19T12:40:17.853Z,99862.00
2023-01-19T12:42:50.035Z,99860.34
2023-01-19T12:45:22.273Z,99854.50
2023-01-19T12:47:54.131Z,99860.22
2023-01-19T12:50:25.710Z,99854.00
2023-01-19T12:52:57.316Z,99862.81
2023-01-19T12:55:30.892Z,99860.06
2023-01-19T12:58:03.338Z,99874.44
2023-01-19T13:00:34.631Z,99863.06
2023-01-19T13:03:04.590Z,99876.63
2023-01-19T13:05:59.130Z,99885.56
2023-01-19T13:08:31.118Z,99885.56
2023-01-19T13:11:21.005Z,99894.38
2023-01-19T13:14:25.360Z,99896.75
2023-01-19T13:17:06.596Z,99891.63
2023-01-19T13:19:45.316Z,99888.84
2023-01-19T13:23:13.897Z,99901.75
2023-01-19T13:25:48.743Z,99891.53
2023-01-19T13:28:19.216Z,99900.84
2023-01-19T13:30:59.298Z,99904.44
2023-01-19T13:33:33.014Z,99907.50
2023-01-19T13:36:00.724Z,99910.13
2023-01-19T13:38:32.817Z,99921.59
2023-01-19T13:41:02.948Z,99913.31
2023-01-19T13:43:34.249Z,99923.72
2023-01-19T13:46:03.603Z,99921.59
2023-01-19T13:48:33.692Z,99922.97
2023-01-19T13:51:06.288Z,99928.75
2023-01-19T13:53:35.398Z,99932.75
2023-01-19T13:56:21.742Z,99934.94
2023-01-19T13:59:09.759Z,99943.91
2023-01-19T14:01:39.561Z,99938.03
2023-01-19T14:04:26.026Z,99941.56
2023-01-19T14:06:55.615Z,99957.25
2023-01-19T14:09:23.831Z,99954.69
2023-01-19T14:12:11.915Z,99962.09
2023-01-19T14:14:39.753Z,99961.34
2023-01-19T14:17:25.503Z,99963.31
2023-01-19T14:19:56.244Z,99971.75
2023-01-19T14:22:39.184Z,99968.97
2023-01-19T14:25:27.803Z,99977.69
2023-01-19T14:28:29.332Z,99971.25
2023-01-19T14:30:58.698Z,99972.44
2023-01-19T14:33:43.589Z,99976.88
2023-01-19T14:36:26.525Z,99987.28
2023-01-19T14:38:55.436Z,99990.25
2023-01-19T14:41:26.186Z,99989.63
2023-01-19T14:43:55.923Z,99994.25
2023-01-19T14:46:24.527Z,100002.16
2023-01-19T14:48:55.960Z,99998.22
2023-01-19T14:51:26.233Z,100006.78
2023-01-19T14:54:18.113Z,100017.50
2023-01-19T14:56:45.845Z,100014.22
2023-01-19T14:59:13.916Z,100009.94
2023-01-19T15:01:41.640Z,100020.31
2023-01-19T15:04:09.321Z,100015.69
2023-01-19T15:06:41.449Z,100022.13
2023-01-19T15:09:11.291Z,100029.16
2023-01-19T15:11:39.362Z,100036.56
2023-01-19T15:14:07.155Z,100041.44
2023-01-19T15:16:35.752Z,100039.09
2023-01-19T15:19:03.879Z,100046.03
2023-01-19T15:21:31.540Z,100040.59
2023-01-19T15:24:00.975Z,100046.53
2023-01-19T15:26:29.084Z,100045.69
2023-01-19T15:28:57.377Z,100049.31
2023-01-19T15:31:27.245Z,100056.59
2023-01-19T15:33:55.111Z,100058.59
2023-01-19T15:36:24.484Z,100066.84
2023-01-19T15:38:52.123Z,100065.03
2023-01-19T15:41:24.908Z,100070.34
2023-01-19T15:43:53.113Z,100064.91
2023-01-19T15:46:21.635Z,100068.41
2023-01-19T15:48:50.325Z,100076.31
2023-01-19T15:51:20.506Z,100078.97
2023-01-19T15:53:48.943Z,100082.44
2023-01-19T15:56:17.914Z,100087.06
2023-01-19T15:58:47.525Z,100094.97
2023-01-19T16:01:16.647Z,100097.25
2023-01-19T16:03:44.603Z,100108.13
2023-01-19T16:06:12.739Z,100104.66
2023-01-19T16:08:40.569Z,100109.75
2023-01-19T16:11:10.269Z,100109.75
2023-01-19T16:13:37.983Z,100115.00
2023-01-19T16:16:09.941Z,100119.06
2023-01-19T16:18:37.702Z,100127.78
2023-01-19T16:21:05.350Z,100130.09
2023-01-19T16:23:32.984Z,100130.72
2023-01-19T16:26:04.720Z,100129.72
2023-01-19T16:28:32.886Z,100121.78
2023-01-19T16:31:00.488Z,100120.63
2023-01-19T16:33:29.536Z,100135.06
2023-01-19T16:35:57.207Z,100130.44
2023-01-19T16:38:24.884Z,100137.16
2023-01-19T16:40:52.482Z,100134.00
2023-01-19T16:43:20.124Z,100140.72
2023-01-19T16:45:59.802Z,100150.88
2023-01-19T16:48:28.861Z,100151.34
2023-01-19T16:51:00.246Z,100161.34
2023-01-19T16:53:27.902Z,100151.81
2023-01-19T16:55:55.473Z,100158.19
2023-01-19T16:58:23.203Z,100162.78
2023-01-19T17:00:50.933Z,100163.25
2023-01-19T17:03:18.622Z,100169.66
2023-01-19T17:05:51.779Z,100173.25
2023-01-19T17:08:20.323Z,100167.47
2023-01-19T17:10:48.096Z,100178.28
2023-01-19T17:13:15.734Z,100171.69
2023-01-19T17:15:43.775Z,100182.38
2023-01-19T17:18:11.499Z,100188.06
2023-01-19T17:20:39.141Z,100183.81
2023-01-19T17:23:08.066Z,100185.91
2023-01-19T17:25:35.635Z,100192.44
2023-01-19T17:28:03.259Z,100198.81
2023-01-19T17:30:31.192Z,100197.50
2023-01-19T17:32:58.872Z,100196.25
2023-01-19T17:35:26.580Z,100202.66
2023-01-19T17:37:55.935Z,100201.03
2023-01-19T17:40:26.021Z,100202.94
2023-01-19T17:42:53.882Z,100211.00
2023-01-19T17:45:21.447Z,100217.22
2023-01-19T17:47:50.304Z,100216.38
2023-01-19T17:50:18.396Z,100215.41
2023-01-19T17:52:46.086Z,100211.81
2023-01-19T17:55:13.843Z,100218.88
2023-01-19T17:57:42.831Z,100219.53
2023-01-19T18:00:13.097Z,100228.91
2023-01-19T18:02:41.427Z,100224.78
2023-01-19T18:05:12.571Z,100231.19
2023-01-19T18:07:40.223Z,100223.44
2023-01-19T18:10:09.878Z,100221.94
2023-01-19T18:12:37.543Z,100230.81
2023-01-19T18:15:08.272Z,100229.44
2023-01-19T18:17:36.400Z,100228.78
2023-01-19T18:20:04.606Z,100235.81
2023-01-19T18:22:33.419Z,100235.28
2023-01-19T18:25:01.748Z,100235.66
2023-01-19T18:27:30.179Z,100245.75
2023-01-19T18:29:57.798Z,100249.41
2023-01-19T18:32:27.323Z,100262.78
2023-01-19T18:34:54.946Z,100255.97
2023-01-19T18:37:22.505Z,100255.34
2023-01-19T18:39:50.428Z,100255.88
2023-01-19T18:42:18.079Z,100262.63
2023-01-19T18:44:45.736Z,100263.59
2023-01-19T18:47:13.328Z,100265.25
2023-01-19T18:49:42.289Z,100265.25
2023-01-19T18:52:09.854Z,100267.91
2023-01-19T18:54:37.819Z,100272.47
2023-01-19T18:57:05.591Z,100269.81
2023-01-19T18:59:33.280Z,100273.59
2023-01-19T19:02:01.422Z,100262.41
2023-01-19T19:04:29.110Z,100263.69
2023-01-19T19:06:58.200Z,100263.97
2023-01-19T19:09:25.837Z,100270.66
2023-01-19T19:11:53.403Z,100264.72
2023-01-19T19:14:21.018Z,100277.19
2023-01-19T19:16:48.612Z,100267.78
2023-01-19T19:19:16.766Z,100279.13
2023-01-19T19:21:44.609Z,100271.25
2023-01-19T19:24:13.573Z,100269.63
2023-01-19T19:26:41.854Z,100266.28
2023-01-19T19:29:09.612Z,100267.41
2023-01-19T19:31:37.393Z,100273.81
2023-01-19T19:34:05.174Z,100277.38
2023-01-19T19:36:33.434Z,100290.38
2023-01-19T19:39:01.292Z,100283.03
2023-01-19T19:41:32.143Z,100286.34
2023-01-19T19:44:00.077Z,100288.00
2023-01-19T19:46:28.963Z,100289.81
2023-01-19T19:48:56.726Z,100288.00
2023-01-19T19:51:26.940Z,100288.69
2023-01-19T19:53:56.161Z,100283.13
2023-01-19T19:56:25.276Z,100289.34
2023-01-19T19:58:56.180Z,100293.63
2023-01-19T20:01:28.056Z,100287.13
2023-01-19T20:03:56.867Z,100296.50
2023-01-19T20:06:25.964Z,100287.63
2023-01-19T20:08:55.483Z,100298.81
2023-01-19T20:11:46.630Z,100299.31
2023-01-19T20:14:16.191Z,100302.66
2023-01-19T20:16:44.060Z,100305.94
2023-01-19T20:19:12.168Z,100300.41
2023-01-19T20:21:42.293Z,100314.19
2023-01-19T20:24:14.624Z,100317.38
2023-01-19T20:26:46.305Z,100316.53
2023-01-19T20:29:14.050Z,100316.69
2023-01-19T20:31:44.827Z,100328.63
2023-01-19T20:34:14.968Z,100329.75
2023-01-19T20:36:43.910Z,100322.97
2023-01-19T20:39:12.620Z,100329.53
2023-01-19T20:41:44.940Z,100338.06
2023-01-19T20:44:15.447Z,100337.41
2023-01-19T20:46:44.487Z,100339.06
2023-01-19T20:49:12.480Z,100341.00
2023-01-19T20:51:43.239Z,100347.75
2023-01-19T20:54:11.344Z,100343.63
2023-01-19T20:56:41.213Z,100349.88
2023-01-19T20:59:09.254Z,100342.97
2023-01-19T21:01:39.020Z,100338.53
2023-01-19T21:04:07.567Z,100347.38
2023-01-19T21:06:35.199Z,100351.81
2023-01-19T21:09:03.033Z,100349.19
2023-01-19T21:11:30.755Z,100361.34
2023-01-19T21:13:58.450Z,100363.16
2023-01-19T21:16:27.982Z,100367.97
2023-01-19T21:18:57.374Z,100367.66
2023-01-19T21:21:30.756Z,100369.31
2023-01-19T21:24:00.144Z,100368.06
2023-01-19T21:26:29.614Z,100370.53
2023-01-19T21:28:57.508Z,100372.84
2023-01-19T21:31:27.369Z,100370.09
2023-01-19T21:33:57.017Z,100381.13
2023-01-19T21:36:25.212Z,100383.59
2023-01-19T21:38:52.922Z,100393.81
2023-01-19T21:41:20.769Z,100387.31
2023-01-19T21:43:48.464Z,100391.28
2023-01-19T21:46:20.016Z,100396.09
2023-01-19T21:48:48.279Z,100401.06
2023-01-19T21:51:17.321Z,100407.81
2023-01-19T21:53:45.115Z,100410.28
2023-01-19T21:56:12.748Z,100409.31
2023-01-19T21:58:40.517Z,100414.28
2023-01-19T22:01:10.801Z,100417.75
2023-01-19T22:03:38.595Z,100425.34
2023-01-19T22:06:07.864Z,100423.53
2023-01-19T22:08:37.584Z,100416.47
2023-01-19T22:11:05.926Z,100429.63
2023-01-19T22:13:33.581Z,100434.59
2023-01-19T22:16:01.800Z,100423.25
2023-01-19T22:18:29.727Z,100432.75
2023-01-19T22:20:57.323Z,100441.34
2023-01-19T22:23:25.009Z,100448.41
2023-01-19T22:25:54.079Z,100452.69
2023-01-19T22:28:21.677Z,100452.84
2023-01-19T22:30:49.457Z,100457.44
2023-01-19T22:33:17.416Z,100460.06
2023-01-19T22:35:44.995Z,100461.56
2023-01-19T22:38:12.580Z,100461.56
2023-01-19T22:40:40.144Z,100468.91
2023-01-19T22:43:09.110Z,100476.66
2023-01-19T22:45:41.329Z,100468.25
2023-01-19T22:48:08.917Z,100473.22
2023-01-19T22:50:36.597Z,100483.72
2023-01-19T22:53:04.278Z,100482.91
2023-01-19T22:55:31.873Z,100483.19
2023-01-19T22:57:59.551Z,100483.19
2023-01-19T23:00:28.513Z,100488.28
2023-01-19T23:02:56.100Z,100489.41
2023-01-19T23:05:23.766Z,100486.25
2023-01-19T23:07:51.428Z,100497.47
2023-01-19T23:10:19.319Z,100498.28
2023-01-19T23:12:47.199Z,100493.72
2023-01-19T23:15:15.101Z,100494.38
2023-01-19T23:17:47.232Z,100494.09
2023-01-19T23:20:15.293Z,100496.59
2023-01-19T23:22:42.848Z,100497.00
2023-01-19T23:25:10.809Z,100500.63
2023-01-19T23:27:38.765Z,100506.84
2023-01-19T23:30:07.941Z,100504.53
2023-01-19T23:32:35.597Z,100497.06
2023-01-19T23:35:05.150Z,100499.97
2023-01-19T23:37:32.768Z,100506.91
2023-01-19T23:40:00.438Z,100508.84
2023-01-19T23:42:28.070Z,100509.69
2023-01-19T23:44:56.047Z,100502.47
2023-01-19T23:47:23.948Z,100510.19
2023-01-19T23:49:51.528Z,100513.00
2023-01-19T23:52:20.554Z,100510.19
2023-01-19T23:54:48.190Z,100522.38
2023-01-19T23:57:15.751Z,100523.88
2023-01-19T23:59:43.549Z,100516.28
